createdAt,value
2019-05-25T00:01:31.613Z,51.35
2019-05-25T00:04:00.245Z,51.15
2019-05-25T00:06:28.941Z,51.75
2019-05-25T00:08:57.622Z,52.54
2019-05-25T00:11:26.419Z,52.72
2019-05-25T00:13:54.834Z,52.12
2019-05-25T00:16:23.287Z,53.03
2019-05-25T00:18:51.677Z,53.24
2019-05-25T00:21:20.075Z,53.18
2019-05-25T00:23:48.458Z,53.60
2019-05-25T00:26:16.858Z,54.37
2019-05-25T00:28:45.514Z,54.73
2019-05-25T00:31:13.960Z,54.82
2019-05-25T00:33:42.685Z,55.20
2019-05-25T00:36:11.068Z,55.26
2019-05-25T00:38:39.439Z,55.67
2019-05-25T00:41:07.837Z,55.99
2019-05-25T00:43:36.242Z,56.51
2019-05-25T00:46:04.698Z,56.56
2019-05-25T00:48:33.176Z,57.28
2019-05-25T00:51:01.515Z,57.49
2019-05-25T00:53:30.162Z,57.68
2019-05-25T00:55:58.855Z,57.94
2019-05-25T00:58:27.234Z,58.36
2019-05-25T01:00:55.704Z,58.94
2019-05-25T01:03:24.408Z,58.94
2019-05-25T01:05:52.800Z,58.74
2019-05-25T01:08:21.192Z,58.84
2019-05-25T01:10:49.592Z,59.23
2019-05-25T01:13:18.268Z,59.41
2019-05-25T01:15:46.659Z,60.01
2019-05-25T01:18:15.048Z,59.90
2019-05-25T01:20:43.996Z,60.18
2019-05-25T01:23:12.398Z,60.33
2019-05-25T01:25:41.076Z,60.31
2019-05-25T01:28:09.467Z,60.71
2019-05-25T01:30:37.837Z,60.91
2019-05-25T01:33:06.557Z,60.94
2019-05-25T01:35:34.954Z,61.26
2019-05-25T01:38:04.025Z,61.48
2019-05-25T01:40:32.425Z,61.59
2019-05-25T01:43:00.803Z,61.73
2019-05-25T01:45:29.482Z,61.98
2019-05-25T01:47:57.917Z,62.22
2019-05-25T01:50:26.306Z,62.51
2019-05-25T01:52:54.938Z,62.92
2019-05-25T01:55:23.339Z,63.10
2019-05-25T01:57:52.016Z,63.35
2019-05-25T02:00:22.116Z,63.50
2019-05-25T02:02:50.530Z,63.97
2019-05-25T02:05:19.088Z,64.43
2019-05-25T02:07:47.481Z,64.75
2019-05-25T02:10:16.200Z,64.99
2019-05-25T02:12:44.585Z,65.28
2019-05-25T02:15:13.911Z,65.60
2019-05-25T02:17:42.491Z,65.72
2019-05-25T02:20:11.543Z,65.90
2019-05-25T02:22:39.936Z,66.82
2019-05-25T02:25:17.662Z,66.82
2019-05-25T02:27:40.741Z,66.98
2019-05-25T02:30:11.679Z,67.61
2019-05-25T02:32:40.067Z,68.75
2019-05-25T02:35:08.907Z,68.72
2019-05-25T02:37:37.328Z,68.95
2019-05-25T02:40:07.629Z,69.08
2019-05-25T02:42:39.393Z,69.23
2019-05-25T02:45:08.242Z,69.18
2019-05-25T02:47:36.633Z,69.37
2019-05-25T02:50:07.128Z,69.66
2019-05-25T02:52:35.507Z,69.47
2019-05-25T02:55:04.338Z,69.51
2019-05-25T02:57:32.751Z,69.42
2019-05-25T03:00:01.447Z,68.91
2019-05-25T03:02:29.834Z,68.91
2019-05-25T03:04:58.323Z,69.08
2019-05-25T03:07:27.098Z,68.88
2019-05-25T03:09:56.550Z,68.58
2019-05-25T03:12:25.206Z,68.43
2019-05-25T03:14:53.607Z,68.46
2019-05-25T03:17:22.011Z,68.46
2019-05-25T03:19:50.453Z,68.51
2019-05-25T03:22:18.951Z,68.35
2019-05-25T03:24:47.340Z,68.35
2019-05-25T03:27:15.756Z,68.66
2019-05-25T03:29:44.147Z,68.87
2019-05-25T03:32:12.992Z,69.20
2019-05-25T03:34:43.206Z,69.20
2019-05-25T03:37:11.937Z,69.18
2019-05-25T03:39:40.413Z,69.19
2019-05-25T03:42:08.785Z,69.30
2019-05-25T03:44:37.196Z,69.31
2019-05-25T03:47:05.657Z,69.30
2019-05-25T03:49:34.062Z,69.32
2019-05-25T03:52:02.712Z,69.42
2019-05-25T03:54:31.098Z,69.58
2019-05-25T03:56:59.499Z,69.90
2019-05-25T03:59:27.912Z,70.38
2019-05-25T04:01:56.552Z,70.54
2019-05-25T04:04:24.944Z,71.39
2019-05-25T04:06:53.350Z,71.39
2019-05-25T04:09:21.739Z,70.73
2019-05-25T04:11:50.125Z,70.73
2019-05-25T04:14:18.534Z,70.68
2019-05-25T04:16:46.929Z,70.89
2019-05-25T04:19:15.643Z,70.89
2019-05-25T04:21:44.049Z,70.93
2019-05-25T04:24:15.617Z,71.24
2019-05-25T04:26:43.999Z,71.78
2019-05-25T04:29:12.758Z,72.15
2019-05-25T04:31:41.162Z,72.68
2019-05-25T04:34:09.554Z,72.90
2019-05-25T04:36:38.222Z,72.90
2019-05-25T04:39:08.254Z,72.46
2019-05-25T04:41:36.646Z,72.21
2019-05-25T04:44:05.619Z,72.21
2019-05-25T04:46:34.308Z,71.73
2019-05-25T04:49:02.950Z,71.73
2019-05-25T04:51:31.694Z,71.75
2019-05-25T04:54:00.099Z,71.78
2019-05-25T04:56:38.733Z,72.13
2019-05-25T04:58:58.982Z,72.62
2019-05-25T05:01:27.383Z,72.62
2019-05-25T05:03:55.766Z,72.12
2019-05-25T05:06:24.545Z,72.12
2019-05-25T05:08:53.326Z,72.23
2019-05-25T05:11:21.718Z,72.12
2019-05-25T05:13:50.177Z,72.24
2019-05-25T05:16:18.587Z,72.08
2019-05-25T05:18:46.973Z,72.19
2019-05-25T05:21:15.384Z,72.37
2019-05-25T05:23:43.822Z,72.53
2019-05-25T05:26:12.198Z,71.94
2019-05-25T05:28:40.595Z,72.43
2019-05-25T05:31:22.639Z,72.48
2019-05-25T05:33:39.981Z,72.25
2019-05-25T05:36:09.340Z,72.14
2019-05-25T05:38:38.692Z,71.74
2019-05-25T05:41:09.039Z,72.12
2019-05-25T05:43:39.580Z,71.87
2019-05-25T05:46:09.582Z,71.41
2019-05-25T05:48:40.516Z,71.00
2019-05-25T05:51:11.498Z,71.17
2019-05-25T05:53:41.098Z,70.49
2019-05-25T05:56:09.845Z,70.58
2019-05-25T05:58:38.308Z,70.06
2019-05-25T06:01:06.781Z,70.08
2019-05-25T06:03:35.163Z,69.88
2019-05-25T06:06:03.582Z,70.12
2019-05-25T06:08:31.967Z,69.58
2019-05-25T06:11:00.730Z,69.40
2019-05-25T06:13:29.148Z,69.58
2019-05-25T06:15:57.543Z,69.15
2019-05-25T06:18:25.940Z,69.66
2019-05-25T06:20:54.332Z,69.81
2019-05-25T06:23:22.730Z,69.54
2019-05-25T06:25:51.433Z,69.18
2019-05-25T06:28:22.415Z,69.11
2019-05-25T06:30:49.965Z,69.15
2019-05-25T06:33:18.358Z,68.97
2019-05-25T06:35:46.768Z,68.68
2019-05-25T06:38:15.187Z,68.15
2019-05-25T06:40:43.574Z,66.72
2019-05-25T06:43:11.954Z,66.25
2019-05-25T06:45:40.363Z,66.01
2019-05-25T06:48:08.777Z,65.17
2019-05-25T06:50:37.157Z,64.62
2019-05-25T06:53:05.569Z,64.79
2019-05-25T06:55:33.964Z,63.47
2019-05-25T06:58:02.653Z,63.55
2019-05-25T07:00:31.288Z,62.45
2019-05-25T07:02:59.681Z,62.13
2019-05-25T07:05:28.063Z,62.08
2019-05-25T07:07:56.479Z,62.32
2019-05-25T07:10:24.888Z,61.34
2019-05-25T07:12:53.570Z,61.91
2019-05-25T07:15:22.361Z,62.00
2019-05-25T07:17:50.926Z,62.73
2019-05-25T07:20:19.491Z,62.16
2019-05-25T07:22:47.896Z,61.41
2019-05-25T07:25:20.001Z,61.50
2019-05-25T07:27:58.759Z,62.06
2019-05-25T07:30:20.339Z,62.04
2019-05-25T07:32:48.759Z,62.27
2019-05-25T07:35:17.732Z,61.67
2019-05-25T07:37:46.462Z,61.00
2019-05-25T07:40:15.140Z,60.94
2019-05-25T07:42:48.244Z,59.15
2019-05-25T07:45:17.323Z,58.45
2019-05-25T07:47:45.826Z,58.26
2019-05-25T07:50:20.168Z,57.03
2019-05-25T07:52:48.516Z,57.60
2019-05-25T07:55:16.954Z,57.60
2019-05-25T07:57:45.381Z,57.43
2019-05-25T08:00:14.168Z,55.67
2019-05-25T08:02:42.943Z,56.09
2019-05-25T08:05:11.570Z,55.62
2019-05-25T08:07:39.964Z,57.75
2019-05-25T08:10:08.938Z,54.04
2019-05-25T08:12:37.415Z,53.62
2019-05-25T08:15:07.045Z,53.65
2019-05-25T08:17:35.885Z,55.19
2019-05-25T08:20:07.175Z,55.45
2019-05-25T08:22:35.708Z,55.94
2019-05-25T08:25:06.796Z,54.20
2019-05-25T08:27:35.187Z,53.35
2019-05-25T08:30:05.544Z,53.57
2019-05-25T08:32:33.931Z,53.31
2019-05-25T08:35:02.343Z,53.73
2019-05-25T08:37:30.746Z,54.03
2019-05-25T08:39:59.148Z,54.68
2019-05-25T08:42:31.864Z,54.05
2019-05-25T08:45:00.589Z,52.39
2019-05-25T08:47:29.278Z,53.38
2019-05-25T08:49:57.677Z,52.63
2019-05-25T08:52:26.293Z,53.50
2019-05-25T08:54:56.614Z,53.77
2019-05-25T08:57:24.915Z,53.77
2019-05-25T08:59:53.551Z,51.87
2019-05-25T09:02:21.962Z,51.12
2019-05-25T09:04:50.365Z,51.33
2019-05-25T09:07:18.758Z,51.67
2019-05-25T09:09:47.418Z,51.77
2019-05-25T09:12:16.080Z,51.95
2019-05-25T09:14:44.471Z,50.21
2019-05-25T09:17:12.877Z,49.69
2019-05-25T09:19:41.588Z,50.58
2019-05-25T09:22:09.990Z,51.65
2019-05-25T09:24:38.373Z,51.58
2019-05-25T09:27:06.774Z,52.91
2019-05-25T09:29:35.263Z,50.31
2019-05-25T09:32:06.884Z,50.26
2019-05-25T09:34:33.784Z,48.50
2019-05-25T09:37:02.174Z,47.53
2019-05-25T09:39:36.574Z,47.16
2019-05-25T09:42:05.880Z,46.74
2019-05-25T09:47:19.360Z,44.11
2019-05-25T09:49:47.734Z,43.30
2019-05-25T09:52:16.212Z,44.70
2019-05-25T09:54:44.658Z,45.19
2019-05-25T09:57:13.624Z,45.16
2019-05-25T09:59:44.135Z,46.26
2019-05-25T10:02:12.592Z,46.02
2019-05-25T10:04:41.311Z,44.99
2019-05-25T10:07:09.783Z,44.69
2019-05-25T10:09:40.155Z,43.01
2019-05-25T10:12:09.589Z,43.66
2019-05-25T10:14:38.012Z,41.52
2019-05-25T10:17:06.711Z,42.54
2019-05-25T10:19:35.221Z,43.28
2019-05-25T10:22:04.535Z,43.48
2019-05-25T10:24:33.243Z,42.93
2019-05-25T10:27:02.520Z,42.03
2019-05-25T10:29:37.108Z,41.25
2019-05-25T10:32:02.368Z,42.79
2019-05-25T10:34:34.412Z,42.25
2019-05-25T10:37:02.966Z,41.93
2019-05-25T10:39:31.648Z,43.34
2019-05-25T10:42:00.174Z,41.08
2019-05-25T10:44:28.590Z,41.52
2019-05-25T10:46:56.990Z,41.74
2019-05-25T10:49:25.400Z,40.09
2019-05-25T10:51:53.788Z,40.00
2019-05-25T10:54:22.190Z,40.40
2019-05-25T10:56:50.639Z,39.41
2019-05-25T10:59:19.065Z,41.58
2019-05-25T11:01:47.510Z,40.00
2019-05-25T11:04:15.878Z,40.54
2019-05-25T11:06:44.282Z,38.55
2019-05-25T11:09:12.675Z,36.55
2019-05-25T11:11:41.103Z,37.48
2019-05-25T11:14:09.502Z,37.44
2019-05-25T11:16:38.664Z,37.49
2019-05-25T11:19:07.369Z,37.12
2019-05-25T11:21:35.834Z,38.66
2019-05-25T11:24:04.250Z,37.69
2019-05-25T11:26:32.780Z,37.05
2019-05-25T11:29:01.209Z,36.82
2019-05-25T11:31:29.783Z,38.62
2019-05-25T11:33:58.191Z,38.93
2019-05-25T11:36:26.598Z,38.75
2019-05-25T11:38:54.997Z,37.55
2019-05-25T11:41:23.633Z,37.08
2019-05-25T11:43:52.030Z,39.11
2019-05-25T11:46:20.927Z,38.60
2019-05-25T11:48:49.380Z,37.50
2019-05-25T11:51:17.712Z,38.18
2019-05-25T11:53:46.143Z,39.02
2019-05-25T11:56:14.853Z,38.53
2019-05-25T11:58:47.368Z,38.43
2019-05-25T12:01:13.374Z,37.05
2019-05-25T12:03:41.766Z,37.44
2019-05-25T12:06:10.440Z,37.09
2019-05-25T12:08:38.843Z,37.05
2019-05-25T12:11:07.234Z,36.55
2019-05-25T12:13:35.669Z,35.76
2019-05-25T12:16:04.481Z,36.19
2019-05-25T12:18:32.910Z,35.90
2019-05-25T12:21:01.289Z,37.69
2019-05-25T12:23:29.685Z,38.38
2019-05-25T12:25:58.128Z,37.47
2019-05-25T12:28:26.534Z,36.55
2019-05-25T12:30:55.329Z,36.04
2019-05-25T12:33:23.730Z,37.54
2019-05-25T12:35:52.193Z,34.81
2019-05-25T12:38:20.575Z,35.76
2019-05-25T12:40:53.475Z,37.75
2019-05-25T12:43:19.094Z,39.31
2019-05-25T12:45:47.562Z,38.75
2019-05-25T12:48:15.955Z,37.87
2019-05-25T12:50:44.354Z,38.79
2019-05-25T12:53:12.948Z,38.39
2019-05-25T12:55:41.411Z,38.40
2019-05-25T12:58:09.985Z,38.94
2019-05-25T13:00:38.445Z,40.02
2019-05-25T13:03:10.349Z,40.14
2019-05-25T13:05:37.006Z,37.27
2019-05-25T13:08:05.424Z,37.62
2019-05-25T13:10:33.790Z,37.57
2019-05-25T13:13:02.430Z,35.81
2019-05-25T13:15:30.888Z,37.49
2019-05-25T13:17:59.299Z,39.15
2019-05-25T13:20:27.681Z,37.83
2019-05-25T13:22:56.088Z,38.57
2019-05-25T13:25:24.490Z,38.18
2019-05-25T13:27:52.871Z,37.47
2019-05-25T13:30:21.420Z,39.27
2019-05-25T13:32:49.829Z,39.16
2019-05-25T13:35:18.478Z,40.79
2019-05-25T13:37:47.163Z,39.17
2019-05-25T13:40:16.502Z,39.06
2019-05-25T13:42:44.885Z,37.32
2019-05-25T13:45:13.865Z,37.07
2019-05-25T13:47:42.263Z,38.00
2019-05-25T13:50:11.515Z,37.27
2019-05-25T13:52:39.902Z,38.63
2019-05-25T13:55:09.379Z,36.87
2019-05-25T13:57:37.915Z,36.70
2019-05-25T14:00:08.815Z,36.09
2019-05-25T14:02:37.236Z,37.78
2019-05-25T14:05:09.085Z,35.86
2019-05-25T14:07:37.632Z,35.47
2019-05-25T14:10:07.588Z,35.26
2019-05-25T14:12:36.046Z,36.40
2019-05-25T14:15:07.526Z,36.62
2019-05-25T14:17:36.345Z,36.99
2019-05-25T14:20:05.993Z,35.69
2019-05-25T14:22:34.468Z,36.26
2019-05-25T14:25:05.424Z,35.83
2019-05-25T14:27:34.363Z,36.33
2019-05-25T14:30:02.745Z,35.99
2019-05-25T14:32:31.148Z,37.69
2019-05-25T14:34:59.554Z,37.27
2019-05-25T14:37:28.211Z,36.26
2019-05-25T14:40:04.300Z,36.26
2019-05-25T14:42:31.934Z,37.44
2019-05-25T14:45:00.369Z,37.96
2019-05-25T14:47:28.839Z,38.06
2019-05-25T14:49:57.231Z,37.42
2019-05-25T14:52:30.294Z,38.15
2019-05-25T14:54:58.686Z,35.81
2019-05-25T14:57:27.164Z,36.68
2019-05-25T14:59:55.777Z,36.30
2019-05-25T15:02:24.180Z,36.58
2019-05-25T15:04:52.650Z,37.45
2019-05-25T15:07:21.043Z,37.13
2019-05-25T15:09:49.463Z,35.85
2019-05-25T15:12:17.874Z,37.33
2019-05-25T15:14:46.272Z,37.30
2019-05-25T15:17:14.653Z,37.65
2019-05-25T15:19:43.140Z,37.24
2019-05-25T15:22:11.728Z,37.60
2019-05-25T15:24:40.278Z,38.65
2019-05-25T15:27:08.702Z,38.08
2019-05-25T15:29:38.682Z,38.65
2019-05-25T15:32:19.461Z,39.58
2019-05-25T15:34:41.573Z,38.98
2019-05-25T15:37:10.044Z,38.72
2019-05-25T15:39:38.454Z,39.63
2019-05-25T15:42:06.852Z,39.78
2019-05-25T15:44:35.247Z,40.21
2019-05-25T15:47:04.944Z,40.44
2019-05-25T15:49:34.016Z,41.23
2019-05-25T15:52:02.445Z,39.36
2019-05-25T15:54:30.849Z,39.20
2019-05-25T15:56:59.271Z,39.13
2019-05-25T15:59:27.672Z,38.92
2019-05-25T16:01:56.056Z,39.04
2019-05-25T16:04:24.462Z,39.58
2019-05-25T16:06:53.136Z,39.58
2019-05-25T16:09:21.557Z,38.94
2019-05-25T16:11:49.947Z,39.19
2019-05-25T16:14:18.363Z,37.57
2019-05-25T16:16:46.757Z,39.19
2019-05-25T16:19:15.217Z,37.18
2019-05-25T16:21:46.112Z,37.54
2019-05-25T16:24:20.424Z,37.35
2019-05-25T16:26:48.924Z,38.08
2019-05-25T16:29:17.657Z,38.11
2019-05-25T16:31:46.024Z,38.40
2019-05-25T16:34:14.495Z,39.08
2019-05-25T16:36:42.904Z,39.24
2019-05-25T16:39:11.295Z,38.16
2019-05-25T16:41:39.731Z,38.48
2019-05-25T16:44:09.898Z,38.01
2019-05-25T16:46:38.570Z,38.97
2019-05-25T16:49:09.761Z,38.44
2019-05-25T16:51:38.199Z,38.97
2019-05-25T16:54:06.652Z,38.94
2019-05-25T16:56:35.091Z,39.21
2019-05-25T16:59:06.319Z,40.09
2019-05-25T17:01:47.694Z,38.45
2019-05-25T17:04:05.584Z,39.59
2019-05-25T17:06:36.154Z,38.95
2019-05-25T17:09:10.168Z,39.92
2019-05-25T17:11:39.041Z,39.25
2019-05-25T17:14:09.538Z,38.82
2019-05-25T17:16:40.502Z,38.83
2019-05-25T17:19:09.223Z,37.92
2019-05-25T17:21:37.628Z,38.65
2019-05-25T17:24:06.019Z,39.80
2019-05-25T17:26:34.655Z,38.75
2019-05-25T17:29:03.331Z,39.34
2019-05-25T17:31:33.597Z,38.71
2019-05-25T17:34:01.958Z,39.28
2019-05-25T17:36:30.364Z,39.63
2019-05-25T17:38:58.759Z,39.92
2019-05-25T17:41:27.151Z,39.75
2019-05-25T17:43:55.579Z,39.13
2019-05-25T17:46:24.001Z,39.46
2019-05-25T17:48:53.927Z,39.77
2019-05-25T17:51:22.328Z,39.56
2019-05-25T17:53:50.736Z,39.72
2019-05-25T17:56:19.436Z,39.65
2019-05-25T17:58:47.845Z,39.82
2019-05-25T18:01:16.249Z,39.82
2019-05-25T18:04:04.257Z,39.90
2019-05-25T18:06:17.822Z,40.57
2019-05-25T18:08:46.211Z,40.19
2019-05-25T18:11:14.674Z,40.24
2019-05-25T18:13:43.450Z,40.81
2019-05-25T18:16:11.907Z,40.14
2019-05-25T18:18:40.307Z,40.75
2019-05-25T18:21:08.709Z,41.20
2019-05-25T18:23:38.088Z,40.77
2019-05-25T18:26:06.732Z,40.92
2019-05-25T18:28:35.114Z,40.94
2019-05-25T18:31:03.504Z,41.00
2019-05-25T18:33:31.935Z,41.36
2019-05-25T18:36:00.350Z,40.93
2019-05-25T18:38:29.026Z,41.47
2019-05-25T18:40:57.505Z,41.49
2019-05-25T18:43:30.438Z,41.64
2019-05-25T18:45:58.825Z,42.23
2019-05-25T18:48:27.275Z,42.67
2019-05-25T18:50:55.844Z,42.09
2019-05-25T18:53:24.398Z,42.30
2019-05-25T18:55:52.770Z,42.47
2019-05-25T18:58:21.543Z,43.11
2019-05-25T19:00:50.029Z,43.59
2019-05-25T19:03:18.477Z,43.65
2019-05-25T19:05:46.881Z,44.04
2019-05-25T19:08:15.555Z,43.76
2019-05-25T19:10:44.390Z,44.04
2019-05-25T19:13:12.769Z,44.02
2019-05-25T19:15:41.273Z,44.33
2019-05-25T19:18:09.705Z,44.35
2019-05-25T19:20:38.099Z,44.29
2019-05-25T19:23:06.496Z,44.66
2019-05-25T19:25:34.892Z,44.85
2019-05-25T19:28:03.458Z,45.15
2019-05-25T19:30:31.865Z,45.18
2019-05-25T19:33:00.247Z,45.75
2019-05-25T19:35:28.636Z,46.07
2019-05-25T19:37:57.029Z,45.60
2019-05-25T19:40:25.432Z,46.24
2019-05-25T19:42:53.861Z,46.53
2019-05-25T19:45:22.590Z,46.79
2019-05-25T19:47:50.993Z,46.85
2019-05-25T19:50:19.807Z,48.25
2019-05-25T19:52:48.244Z,48.99
2019-05-25T19:55:16.701Z,49.64
2019-05-25T19:57:45.616Z,49.68
2019-05-25T20:00:14.916Z,49.67
2019-05-25T20:02:43.401Z,49.89
2019-05-25T20:05:16.999Z,50.52
2019-05-25T20:07:42.299Z,50.90
2019-05-25T20:10:11.664Z,51.22
2019-05-25T20:12:40.068Z,51.80
2019-05-25T20:15:09.424Z,52.12
2019-05-25T20:17:37.882Z,52.31
2019-05-25T20:20:07.472Z,52.42
2019-05-25T20:22:35.833Z,52.63
2019-05-25T20:25:06.745Z,53.01
2019-05-25T20:27:35.202Z,53.27
2019-05-25T20:30:07.244Z,53.70
2019-05-25T20:32:35.678Z,53.81
2019-05-25T20:35:05.852Z,53.50
2019-05-25T20:37:34.255Z,53.23
2019-05-25T20:40:02.769Z,53.44
2019-05-25T20:42:31.268Z,54.37
2019-05-25T20:44:59.668Z,54.42
2019-05-25T20:47:28.071Z,54.04
2019-05-25T20:49:56.479Z,54.20
2019-05-25T20:52:24.870Z,54.59
2019-05-25T20:54:53.354Z,54.87
2019-05-25T20:57:21.748Z,55.05
2019-05-25T20:59:50.366Z,54.87
2019-05-25T21:02:18.789Z,54.81
2019-05-25T21:04:47.180Z,54.46
2019-05-25T21:07:15.855Z,54.97
2019-05-25T21:09:44.264Z,55.49
2019-05-25T21:12:13.127Z,55.45
2019-05-25T21:14:41.534Z,56.17
2019-05-25T21:17:09.944Z,56.58
2019-05-25T21:19:38.347Z,56.96
2019-05-25T21:22:06.764Z,57.35
2019-05-25T21:24:35.146Z,57.58
2019-05-25T21:27:04.460Z,57.86
2019-05-25T21:29:32.879Z,58.02
2019-05-25T21:32:01.456Z,58.30
2019-05-25T21:34:29.841Z,58.55
2019-05-25T21:36:58.235Z,58.84
2019-05-25T21:39:26.642Z,59.11
2019-05-25T21:41:55.366Z,59.46
2019-05-25T21:44:24.201Z,59.70
2019-05-25T21:46:52.817Z,60.24
2019-05-25T21:49:21.459Z,60.64
2019-05-25T21:51:49.941Z,61.09
2019-05-25T21:54:18.384Z,61.70
2019-05-25T21:56:46.769Z,62.02
2019-05-25T21:59:15.167Z,62.44
2019-05-25T22:01:43.562Z,62.58
2019-05-25T22:04:12.029Z,62.95
2019-05-25T22:06:40.631Z,63.08
2019-05-25T22:09:09.037Z,63.27
2019-05-25T22:11:37.435Z,63.47
2019-05-25T22:14:05.911Z,63.80
2019-05-25T22:16:34.338Z,64.00
2019-05-25T22:19:07.223Z,64.15
2019-05-25T22:21:37.228Z,64.40
2019-05-25T22:24:05.619Z,64.58
2019-05-25T22:26:34.348Z,64.55
2019-05-25T22:29:03.038Z,64.63
2019-05-25T22:31:31.440Z,64.80
2019-05-25T22:34:02.872Z,64.93
2019-05-25T22:36:40.200Z,65.03
2019-05-25T22:39:01.712Z,65.15
2019-05-25T22:41:30.171Z,65.31
2019-05-25T22:43:58.874Z,65.43
2019-05-25T22:46:27.281Z,65.46
2019-05-25T22:48:55.952Z,65.58
2019-05-25T22:51:24.460Z,65.75
2019-05-25T22:53:52.846Z,65.77
2019-05-25T22:56:21.606Z,66.12
2019-05-25T22:58:50.014Z,66.15
2019-05-25T23:01:18.674Z,66.27
2019-05-25T23:03:47.088Z,66.53
2019-05-25T23:06:15.553Z,66.66
2019-05-25T23:08:43.956Z,66.84
2019-05-25T23:11:12.347Z,66.79
2019-05-25T23:13:41.104Z,66.98
2019-05-25T23:16:11.129Z,66.89
2019-05-25T23:18:43.797Z,66.99
2019-05-25T23:21:12.222Z,67.11
2019-05-25T23:23:40.601Z,67.45
2019-05-25T23:26:09.265Z,67.77
2019-05-25T23:28:37.664Z,67.92
2019-05-25T23:31:06.049Z,67.98
2019-05-25T23:33:34.464Z,67.68
2019-05-25T23:36:02.871Z,67.84
2019-05-25T23:38:31.589Z,68.07
2019-05-25T23:40:59.986Z,68.43
2019-05-25T23:43:28.392Z,68.66
2019-05-25T23:45:56.784Z,68.97
2019-05-25T23:48:25.181Z,68.97
2019-05-25T23:50:53.910Z,69.16
2019-05-25T23:53:22.594Z,69.21
2019-05-25T23:55:51.500Z,69.20
2019-05-25T23:58:19.912Z,69.47
